sensor_id;sensor_type;location;lat;lon;timestamp;P1;durP1;ratioP1;P2;durP2;ratioP2
10403;SDS011;5248;47.374;8.486;2023-09-07T00:00:25;5.53;;;5.13;;
10403;SDS011;5248;47.374;8.486;2023-09-07T00:02:52;5.60;;;5.20;;
10403;SDS011;5248;47.374;8.486;2023-09-07T00:05:20;6.25;;;5.75;;
10403;SDS011;5248;47.374;8.486;2023-09-07T00:07:47;6.25;;;5.70;;
10403;SDS011;5248;47.374;8.486;2023-09-07T00:10:15;6.07;;;5.47;;
10403;SDS011;5248;47.374;8.486;2023-09-07T00:12:42;6.07;;;5.50;;
10403;SDS011;5248;47.374;8.486;2023-09-07T00:15:10;6.13;;;5.57;;
10403;SDS011;5248;47.374;8.486;2023-09-07T00:17:37;6.00;;;5.50;;
10403;SDS011;5248;47.374;8.486;2023-09-07T00:20:05;5.75;;;5.28;;
10403;SDS011;5248;47.374;8.486;2023-09-07T00:22:37;6.80;;;5.53;;
10403;SDS011;5248;47.374;8.486;2023-09-07T00:25:04;6.03;;;5.43;;
10403;SDS011;5248;47.374;8.486;2023-09-07T00:27:31;5.78;;;5.35;;
10403;SDS011;5248;47.374;8.486;2023-09-07T00:29:58;5.95;;;5.35;;
10403;SDS011;5248;47.374;8.486;2023-09-07T00:32:26;7.07;;;5.75;;
10403;SDS011;5248;47.374;8.486;2023-09-07T00:34:52;7.60;;;5.63;;
10403;SDS011;5248;47.374;8.486;2023-09-07T00:37:20;5.85;;;5.35;;
10403;SDS011;5248;47.374;8.486;2023-09-07T00:39:48;7.80;;;5.80;;
10403;SDS011;5248;47.374;8.486;2023-09-07T00:42:15;6.15;;;5.55;;
10403;SDS011;5248;47.374;8.486;2023-09-07T00:44:42;7.68;;;5.47;;
10403;SDS011;5248;47.374;8.486;2023-09-07T00:47:08;10.02;;;5.50;;
10403;SDS011;5248;47.374;8.486;2023-09-07T00:49:38;5.85;;;5.35;;
10403;SDS011;5248;47.374;8.486;2023-09-07T00:52:05;6.35;;;5.72;;
10403;SDS011;5248;47.374;8.486;2023-09-07T00:54:32;6.45;;;5.70;;
10403;SDS011;5248;47.374;8.486;2023-09-07T00:57:04;6.57;;;6.07;;
10403;SDS011;5248;47.374;8.486;2023-09-07T00:59:32;7.32;;;5.35;;
10403;SDS011;5248;47.374;8.486;2023-09-07T01:01:58;7.68;;;5.80;;
10403;SDS011;5248;47.374;8.486;2023-09-07T01:04:25;5.72;;;5.22;;
10403;SDS011;5248;47.374;8.486;2023-09-07T01:06:56;6.18;;;5.35;;
10403;SDS011;5248;47.374;8.486;2023-09-07T01:09:25;6.60;;;5.30;;
10403;SDS011;5248;47.374;8.486;2023-09-07T01:11:52;7.55;;;5.07;;
10403;SDS011;5248;47.374;8.486;2023-09-07T01:14:20;5.90;;;5.18;;
10403;SDS011;5248;47.374;8.486;2023-09-07T01:16:47;6.03;;;5.63;;
10403;SDS011;5248;47.374;8.486;2023-09-07T01:19:14;5.88;;;5.38;;
10403;SDS011;5248;47.374;8.486;2023-09-07T01:21:45;7.30;;;5.55;;
10403;SDS011;5248;47.374;8.486;2023-09-07T01:24:11;9.52;;;5.03;;
10403;SDS011;5248;47.374;8.486;2023-09-07T01:26:40;6.25;;;5.65;;
10403;SDS011;5248;47.374;8.486;2023-09-07T01:29:07;6.80;;;5.70;;
10403;SDS011;5248;47.374;8.486;2023-09-07T01:31:35;6.07;;;5.50;;
10403;SDS011;5248;47.374;8.486;2023-09-07T01:34:03;6.05;;;5.40;;
10403;SDS011;5248;47.374;8.486;2023-09-07T01:36:29;5.72;;;5.13;;
10403;SDS011;5248;47.374;8.486;2023-09-07T01:38:57;6.22;;;5.35;;
10403;SDS011;5248;47.374;8.486;2023-09-07T01:41:24;6.30;;;5.47;;
10403;SDS011;5248;47.374;8.486;2023-09-07T01:43:50;5.97;;;5.40;;
10403;SDS011;5248;47.374;8.486;2023-09-07T01:46:18;5.60;;;5.05;;
10403;SDS011;5248;47.374;8.486;2023-09-07T01:48:46;6.75;;;5.28;;
10403;SDS011;5248;47.374;8.486;2023-09-07T01:51:12;5.95;;;5.35;;
10403;SDS011;5248;47.374;8.486;2023-09-07T01:53:39;7.30;;;5.30;;
10403;SDS011;5248;47.374;8.486;2023-09-07T01:56:07;6.03;;;5.53;;
10403;SDS011;5248;47.374;8.486;2023-09-07T01:58:34;6.15;;;5.65;;
10403;SDS011;5248;47.374;8.486;2023-09-07T02:01:01;6.25;;;5.65;;
10403;SDS011;5248;47.374;8.486;2023-09-07T02:03:28;6.10;;;5.10;;
10403;SDS011;5248;47.374;8.486;2023-09-07T02:05:54;5.47;;;4.97;;
10403;SDS011;5248;47.374;8.486;2023-09-07T02:08:21;5.75;;;4.85;;
10403;SDS011;5248;47.374;8.486;2023-09-07T02:10:48;5.43;;;4.93;;
10403;SDS011;5248;47.374;8.486;2023-09-07T02:13:16;5.05;;;4.75;;
10403;SDS011;5248;47.374;8.486;2023-09-07T02:15:43;6.05;;;5.50;;
10403;SDS011;5248;47.374;8.486;2023-09-07T02:18:09;7.20;;;5.10;;
10403;SDS011;5248;47.374;8.486;2023-09-07T02:20:36;6.00;;;5.40;;
10403;SDS011;5248;47.374;8.486;2023-09-07T02:23:03;6.05;;;5.50;;
10403;SDS011;5248;47.374;8.486;2023-09-07T02:25:29;5.63;;;5.20;;
10403;SDS011;5248;47.374;8.486;2023-09-07T02:27:56;5.68;;;5.22;;
10403;SDS011;5248;47.374;8.486;2023-09-07T02:30:24;6.10;;;5.50;;
10403;SDS011;5248;47.374;8.486;2023-09-07T02:32:52;5.50;;;5.05;;
10403;SDS011;5248;47.374;8.486;2023-09-07T02:35:19;6.07;;;5.57;;
10403;SDS011;5248;47.374;8.486;2023-09-07T02:37:46;6.43;;;5.50;;
10403;SDS011;5248;47.374;8.486;2023-09-07T02:40:13;5.75;;;5.25;;
10403;SDS011;5248;47.374;8.486;2023-09-07T02:42:40;8.75;;;5.68;;
10403;SDS011;5248;47.374;8.486;2023-09-07T02:45:09;6.72;;;5.47;;
10403;SDS011;5248;47.374;8.486;2023-09-07T02:47:39;5.60;;;5.10;;
10403;SDS011;5248;47.374;8.486;2023-09-07T02:50:08;10.27;;;5.47;;
10403;SDS011;5248;47.374;8.486;2023-09-07T02:52:34;5.82;;;4.90;;
10403;SDS011;5248;47.374;8.486;2023-09-07T02:55:01;5.40;;;5.00;;
10403;SDS011;5248;47.374;8.486;2023-09-07T02:57:29;5.47;;;4.97;;
10403;SDS011;5248;47.374;8.486;2023-09-07T02:59:55;5.28;;;4.78;;
10403;SDS011;5248;47.374;8.486;2023-09-07T03:02:22;5.32;;;4.82;;
10403;SDS011;5248;47.374;8.486;2023-09-07T03:04:54;5.45;;;4.95;;
10403;SDS011;5248;47.374;8.486;2023-09-07T03:07:23;5.60;;;5.03;;
10403;SDS011;5248;47.374;8.486;2023-09-07T03:09:51;6.55;;;5.05;;
10403;SDS011;5248;47.374;8.486;2023-09-07T03:12:18;5.45;;;4.90;;
10403;SDS011;5248;47.374;8.486;2023-09-07T03:14:45;6.57;;;5.63;;
10403;SDS011;5248;47.374;8.486;2023-09-07T03:17:11;5.15;;;4.75;;
10403;SDS011;5248;47.374;8.486;2023-09-07T03:19:38;5.68;;;5.18;;
10403;SDS011;5248;47.374;8.486;2023-09-07T03:22:06;5.65;;;5.15;;
10403;SDS011;5248;47.374;8.486;2023-09-07T03:24:33;5.50;;;5.00;;
10403;SDS011;5248;47.374;8.486;2023-09-07T03:27:00;6.40;;;5.40;;
10403;SDS011;5248;47.374;8.486;2023-09-07T03:29:26;5.07;;;4.68;;
10403;SDS011;5248;47.374;8.486;2023-09-07T03:31:53;6.13;;;5.45;;
10403;SDS011;5248;47.374;8.486;2023-09-07T03:34:19;5.07;;;4.68;;
10403;SDS011;5248;47.374;8.486;2023-09-07T03:36:48;6.07;;;5.47;;
10403;SDS011;5248;47.374;8.486;2023-09-07T03:39:15;5.82;;;5.13;;
10403;SDS011;5248;47.374;8.486;2023-09-07T03:41:43;7.38;;;5.38;;
10403;SDS011;5248;47.374;8.486;2023-09-07T03:44:11;4.90;;;4.50;;
10403;SDS011;5248;47.374;8.486;2023-09-07T03:46:37;5.47;;;5.00;;
10403;SDS011;5248;47.374;8.486;2023-09-07T03:49:05;5.57;;;4.80;;
10403;SDS011;5248;47.374;8.486;2023-09-07T03:51:32;8.10;;;5.43;;
10403;SDS011;5248;47.374;8.486;2023-09-07T03:53:59;5.20;;;4.80;;
10403;SDS011;5248;47.374;8.486;2023-09-07T03:56:27;7.40;;;4.90;;
10403;SDS011;5248;47.374;8.486;2023-09-07T03:58:53;5.90;;;5.45;;
10403;SDS011;5248;47.374;8.486;2023-09-07T04:01:21;5.10;;;4.70;;
10403;SDS011;5248;47.374;8.486;2023-09-07T04:03:48;5.07;;;4.68;;
10403;SDS011;5248;47.374;8.486;2023-09-07T04:06:15;5.47;;;4.88;;
10403;SDS011;5248;47.374;8.486;2023-09-07T04:08:42;5.78;;;5.07;;
10403;SDS011;5248;47.374;8.486;2023-09-07T04:11:08;5.82;;;5.32;;
10403;SDS011;5248;47.374;8.486;2023-09-07T04:13:36;5.32;;;4.93;;
10403;SDS011;5248;47.374;8.486;2023-09-07T04:16:03;5.13;;;4.65;;
10403;SDS011;5248;47.374;8.486;2023-09-07T04:18:30;5.65;;;5.15;;
10403;SDS011;5248;47.374;8.486;2023-09-07T04:21:04;6.40;;;5.80;;
10403;SDS011;5248;47.374;8.486;2023-09-07T04:23:30;5.60;;;5.10;;
10403;SDS011;5248;47.374;8.486;2023-09-07T04:26:03;5.80;;;5.10;;
10403;SDS011;5248;47.374;8.486;2023-09-07T04:28:34;6.67;;;6.00;;
10403;SDS011;5248;47.374;8.486;2023-09-07T04:31:04;6.03;;;5.53;;
10403;SDS011;5248;47.374;8.486;2023-09-07T04:33:32;7.65;;;5.57;;
10403;SDS011;5248;47.374;8.486;2023-09-07T04:36:06;6.25;;;5.13;;
10403;SDS011;5248;47.374;8.486;2023-09-07T04:38:33;5.65;;;5.07;;
10403;SDS011;5248;47.374;8.486;2023-09-07T04:41:05;5.63;;;5.07;;
10403;SDS011;5248;47.374;8.486;2023-09-07T04:43:32;6.18;;;5.65;;
10403;SDS011;5248;47.374;8.486;2023-09-07T04:45:58;6.18;;;5.28;;
10403;SDS011;5248;47.374;8.486;2023-09-07T04:48:26;6.88;;;5.30;;
10403;SDS011;5248;47.374;8.486;2023-09-07T04:50:57;7.15;;;6.05;;
10403;SDS011;5248;47.374;8.486;2023-09-07T04:53:24;5.80;;;5.30;;
10403;SDS011;5248;47.374;8.486;2023-09-07T04:55:58;6.63;;;5.28;;
10403;SDS011;5248;47.374;8.486;2023-09-07T04:58:25;5.67;;;5.13;;
10403;SDS011;5248;47.374;8.486;2023-09-07T05:00:51;7.90;;;5.75;;
10403;SDS011;5248;47.374;8.486;2023-09-07T05:03:18;5.35;;;4.93;;
10403;SDS011;5248;47.374;8.486;2023-09-07T05:05:50;6.07;;;5.38;;
10403;SDS011;5248;47.374;8.486;2023-09-07T05:08:17;7.40;;;5.68;;
10403;SDS011;5248;47.374;8.486;2023-09-07T05:10:45;6.97;;;5.32;;
10403;SDS011;5248;47.374;8.486;2023-09-07T05:13:13;7.65;;;5.65;;
10403;SDS011;5248;47.374;8.486;2023-09-07T05:15:46;6.78;;;5.10;;
10403;SDS011;5248;47.374;8.486;2023-09-07T05:18:13;6.13;;;4.82;;
10403;SDS011;5248;47.374;8.486;2023-09-07T05:20:40;6.03;;;5.43;;
10403;SDS011;5248;47.374;8.486;2023-09-07T05:23:08;9.05;;;5.75;;
10403;SDS011;5248;47.374;8.486;2023-09-07T05:25:42;5.97;;;5.35;;
10403;SDS011;5248;47.374;8.486;2023-09-07T05:28:09;6.20;;;5.47;;
10403;SDS011;5248;47.374;8.486;2023-09-07T05:30:36;7.68;;;5.95;;
10403;SDS011;5248;47.374;8.486;2023-09-07T05:33:02;8.63;;;5.70;;
10403;SDS011;5248;47.374;8.486;2023-09-07T05:35:29;8.45;;;5.90;;
10403;SDS011;5248;47.374;8.486;2023-09-07T05:37:57;7.80;;;5.95;;
10403;SDS011;5248;47.374;8.486;2023-09-07T05:40:25;6.10;;;5.55;;
10403;SDS011;5248;47.374;8.486;2023-09-07T05:42:52;6.13;;;5.32;;
10403;SDS011;5248;47.374;8.486;2023-09-07T05:45:18;5.75;;;5.25;;
10403;SDS011;5248;47.374;8.486;2023-09-07T05:47:47;6.55;;;5.90;;
10403;SDS011;5248;47.374;8.486;2023-09-07T05:50:13;5.72;;;5.22;;
10403;SDS011;5248;47.374;8.486;2023-09-07T05:52:41;6.13;;;5.53;;
10403;SDS011;5248;47.374;8.486;2023-09-07T05:55:08;6.63;;;5.55;;
10403;SDS011;5248;47.374;8.486;2023-09-07T05:57:36;6.63;;;5.93;;
10403;SDS011;5248;47.374;8.486;2023-09-07T06:00:03;6.35;;;5.35;;
10403;SDS011;5248;47.374;8.486;2023-09-07T06:02:31;6.13;;;5.53;;
10403;SDS011;5248;47.374;8.486;2023-09-07T06:04:57;7.40;;;5.47;;
10403;SDS011;5248;47.374;8.486;2023-09-07T06:07:25;7.43;;;6.18;;
10403;SDS011;5248;47.374;8.486;2023-09-07T06:09:52;6.30;;;5.80;;
10403;SDS011;5248;47.374;8.486;2023-09-07T06:12:18;6.65;;;6.00;;
10403;SDS011;5248;47.374;8.486;2023-09-07T06:14:47;5.85;;;5.28;;
10403;SDS011;5248;47.374;8.486;2023-09-07T06:17:14;9.00;;;5.13;;
10403;SDS011;5248;47.374;8.486;2023-09-07T06:19:40;7.75;;;5.50;;
10403;SDS011;5248;47.374;8.486;2023-09-07T06:22:07;6.68;;;5.57;;
10403;SDS011;5248;47.374;8.486;2023-09-07T06:24:34;7.22;;;5.25;;
10403;SDS011;5248;47.374;8.486;2023-09-07T06:27:00;6.68;;;4.82;;
10403;SDS011;5248;47.374;8.486;2023-09-07T06:29:27;5.15;;;4.75;;
10403;SDS011;5248;47.374;8.486;2023-09-07T06:31:55;8.90;;;5.45;;
10403;SDS011;5248;47.374;8.486;2023-09-07T06:34:21;6.00;;;5.40;;
10403;SDS011;5248;47.374;8.486;2023-09-07T06:36:48;6.70;;;4.78;;
10403;SDS011;5248;47.374;8.486;2023-09-07T06:39:14;5.20;;;4.70;;
10403;SDS011;5248;47.374;8.486;2023-09-07T06:41:41;6.53;;;4.70;;
10403;SDS011;5248;47.374;8.486;2023-09-07T06:44:09;5.82;;;5.28;;
10403;SDS011;5248;47.374;8.486;2023-09-07T06:46:35;5.07;;;4.57;;
10403;SDS011;5248;47.374;8.486;2023-09-07T06:49:03;5.30;;;4.80;;
10403;SDS011;5248;47.374;8.486;2023-09-07T06:51:30;5.50;;;4.93;;
10403;SDS011;5248;47.374;8.486;2023-09-07T06:53:56;6.35;;;4.72;;
10403;SDS011;5248;47.374;8.486;2023-09-07T06:56:24;5.55;;;5.00;;
10403;SDS011;5248;47.374;8.486;2023-09-07T06:58:52;6.07;;;5.18;;
10403;SDS011;5248;47.374;8.486;2023-09-07T07:01:20;6.13;;;5.53;;
10403;SDS011;5248;47.374;8.486;2023-09-07T07:03:46;7.18;;;5.03;;
10403;SDS011;5248;47.374;8.486;2023-09-07T07:06:14;6.05;;;5.10;;
10403;SDS011;5248;47.374;8.486;2023-09-07T07:08:40;5.55;;;5.05;;
10403;SDS011;5248;47.374;8.486;2023-09-07T07:11:07;6.47;;;5.07;;
10403;SDS011;5248;47.374;8.486;2023-09-07T07:13:34;6.28;;;4.93;;
10403;SDS011;5248;47.374;8.486;2023-09-07T07:16:02;6.53;;;4.97;;
10403;SDS011;5248;47.374;8.486;2023-09-07T07:18:28;5.97;;;5.10;;
10403;SDS011;5248;47.374;8.486;2023-09-07T07:20:55;5.60;;;5.10;;
10403;SDS011;5248;47.374;8.486;2023-09-07T07:23:23;13.35;;;5.88;;
10403;SDS011;5248;47.374;8.486;2023-09-07T07:25:49;5.93;;;5.10;;
10403;SDS011;5248;47.374;8.486;2023-09-07T07:28:17;6.40;;;5.80;;
10403;SDS011;5248;47.374;8.486;2023-09-07T07:30:43;5.85;;;5.22;;
10403;SDS011;5248;47.374;8.486;2023-09-07T07:33:10;6.78;;;5.68;;
10403;SDS011;5248;47.374;8.486;2023-09-07T07:35:37;8.52;;;5.68;;
10403;SDS011;5248;47.374;8.486;2023-09-07T07:38:04;5.90;;;5.40;;
10403;SDS011;5248;47.374;8.486;2023-09-07T07:40:32;6.50;;;5.28;;
10403;SDS011;5248;47.374;8.486;2023-09-07T07:42:59;5.97;;;5.50;;
10403;SDS011;5248;47.374;8.486;2023-09-07T07:45:25;8.68;;;6.35;;
10403;SDS011;5248;47.374;8.486;2023-09-07T07:47:52;7.00;;;6.07;;
10403;SDS011;5248;47.374;8.486;2023-09-07T07:50:20;9.48;;;5.80;;
10403;SDS011;5248;47.374;8.486;2023-09-07T07:52:47;6.25;;;5.75;;
10403;SDS011;5248;47.374;8.486;2023-09-07T07:55:13;11.13;;;6.35;;
10403;SDS011;5248;47.374;8.486;2023-09-07T07:57:41;6.28;;;5.68;;
10403;SDS011;5248;47.374;8.486;2023-09-07T08:00:08;7.78;;;5.40;;
10403;SDS011;5248;47.374;8.486;2023-09-07T08:02:36;7.65;;;5.40;;
10403;SDS011;5248;47.374;8.486;2023-09-07T08:05:02;7.97;;;6.00;;
10403;SDS011;5248;47.374;8.486;2023-09-07T08:07:29;7.22;;;6.00;;
10403;SDS011;5248;47.374;8.486;2023-09-07T08:09:57;6.60;;;5.97;;
10403;SDS011;5248;47.374;8.486;2023-09-07T08:12:23;6.45;;;5.85;;
10403;SDS011;5248;47.374;8.486;2023-09-07T08:14:52;8.07;;;6.15;;
10403;SDS011;5248;47.374;8.486;2023-09-07T08:17:18;5.72;;;5.22;;
10403;SDS011;5248;47.374;8.486;2023-09-07T08:19:45;7.40;;;5.90;;
10403;SDS011;5248;47.374;8.486;2023-09-07T08:22:13;6.43;;;5.82;;
10403;SDS011;5248;47.374;8.486;2023-09-07T08:24:41;6.60;;;6.00;;
10403;SDS011;5248;47.374;8.486;2023-09-07T08:27:09;6.93;;;6.30;;
10403;SDS011;5248;47.374;8.486;2023-09-07T08:29:36;6.05;;;5.55;;
10403;SDS011;5248;47.374;8.486;2023-09-07T08:32:04;9.88;;;6.50;;
10403;SDS011;5248;47.374;8.486;2023-09-07T08:34:31;6.55;;;5.95;;
10403;SDS011;5248;47.374;8.486;2023-09-07T08:37:00;9.73;;;7.15;;
10403;SDS011;5248;47.374;8.486;2023-09-07T08:39:30;6.55;;;5.93;;
10403;SDS011;5248;47.374;8.486;2023-09-07T08:41:59;8.20;;;6.45;;
10403;SDS011;5248;47.374;8.486;2023-09-07T08:44:26;7.75;;;6.70;;
10403;SDS011;5248;47.374;8.486;2023-09-07T08:46:53;7.28;;;6.65;;
10403;SDS011;5248;47.374;8.486;2023-09-07T08:49:22;8.50;;;6.60;;
10403;SDS011;5248;47.374;8.486;2023-09-07T08:51:49;8.02;;;6.57;;
10403;SDS011;5248;47.374;8.486;2023-09-07T08:54:16;8.40;;;6.60;;
10403;SDS011;5248;47.374;8.486;2023-09-07T08:56:43;10.20;;;7.60;;
10403;SDS011;5248;47.374;8.486;2023-09-07T08:59:10;11.93;;;9.77;;
10403;SDS011;5248;47.374;8.486;2023-09-07T09:01:37;7.28;;;6.63;;
10403;SDS011;5248;47.374;8.486;2023-09-07T09:04:04;7.72;;;6.68;;
10403;SDS011;5248;47.374;8.486;2023-09-07T09:06:32;7.30;;;6.03;;
10403;SDS011;5248;47.374;8.486;2023-09-07T09:09:00;7.47;;;6.82;;
10403;SDS011;5248;47.374;8.486;2023-09-07T09:11:27;7.80;;;7.10;;
10403;SDS011;5248;47.374;8.486;2023-09-07T09:13:53;6.78;;;5.45;;
10403;SDS011;5248;47.374;8.486;2023-09-07T09:16:21;8.05;;;6.70;;
10403;SDS011;5248;47.374;8.486;2023-09-07T09:18:47;7.05;;;6.45;;
10403;SDS011;5248;47.374;8.486;2023-09-07T09:21:14;9.98;;;6.97;;
10403;SDS011;5248;47.374;8.486;2023-09-07T09:23:43;7.47;;;6.68;;
10403;SDS011;5248;47.374;8.486;2023-09-07T09:26:09;12.75;;;6.70;;
10403;SDS011;5248;47.374;8.486;2023-09-07T09:28:37;10.63;;;8.00;;
10403;SDS011;5248;47.374;8.486;2023-09-07T09:31:03;8.38;;;6.68;;
10403;SDS011;5248;47.374;8.486;2023-09-07T09:33:31;9.50;;;6.85;;
10403;SDS011;5248;47.374;8.486;2023-09-07T09:35:59;7.35;;;6.53;;
10403;SDS011;5248;47.374;8.486;2023-09-07T09:38:27;7.97;;;6.28;;
10403;SDS011;5248;47.374;8.486;2023-09-07T09:40:55;7.22;;;6.53;;
10403;SDS011;5248;47.374;8.486;2023-09-07T09:43:22;7.15;;;6.10;;
10403;SDS011;5248;47.374;8.486;2023-09-07T09:45:49;7.78;;;6.60;;
10403;SDS011;5248;47.374;8.486;2023-09-07T09:48:17;7.53;;;6.63;;
10403;SDS011;5248;47.374;8.486;2023-09-07T09:50:46;6.90;;;6.30;;
10403;SDS011;5248;47.374;8.486;2023-09-07T09:53:13;7.85;;;6.78;;
10403;SDS011;5248;47.374;8.486;2023-09-07T09:55:43;6.85;;;6.15;;
10403;SDS011;5248;47.374;8.486;2023-09-07T09:58:12;7.93;;;6.53;;
10403;SDS011;5248;47.374;8.486;2023-09-07T10:00:39;6.53;;;5.88;;
10403;SDS011;5248;47.374;8.486;2023-09-07T10:03:07;8.23;;;7.05;;
10403;SDS011;5248;47.374;8.486;2023-09-07T10:05:36;8.10;;;7.03;;
10403;SDS011;5248;47.374;8.486;2023-09-07T10:08:03;8.02;;;6.90;;
10403;SDS011;5248;47.374;8.486;2023-09-07T10:10:34;11.77;;;6.93;;
10403;SDS011;5248;47.374;8.486;2023-09-07T10:13:02;7.97;;;6.30;;
10403;SDS011;5248;47.374;8.486;2023-09-07T10:15:32;7.78;;;6.25;;
10403;SDS011;5248;47.374;8.486;2023-09-07T10:18:08;7.72;;;6.90;;
10403;SDS011;5248;47.374;8.486;2023-09-07T10:20:52;10.68;;;7.03;;
10403;SDS011;5248;47.374;8.486;2023-09-07T10:23:21;6.53;;;5.93;;
10403;SDS011;5248;47.374;8.486;2023-09-07T10:25:49;7.38;;;6.50;;
10403;SDS011;5248;47.374;8.486;2023-09-07T10:28:22;7.03;;;6.40;;
10403;SDS011;5248;47.374;8.486;2023-09-07T10:31:01;7.13;;;6.43;;
10403;SDS011;5248;47.374;8.486;2023-09-07T10:33:29;7.00;;;6.03;;
10403;SDS011;5248;47.374;8.486;2023-09-07T10:35:56;6.72;;;6.13;;
10403;SDS011;5248;47.374;8.486;2023-09-07T10:38:23;6.82;;;6.28;;
10403;SDS011;5248;47.374;8.486;2023-09-07T10:40:54;8.20;;;5.80;;
10403;SDS011;5248;47.374;8.486;2023-09-07T10:43:22;6.72;;;6.13;;
10403;SDS011;5248;47.374;8.486;2023-09-07T10:45:49;7.63;;;6.93;;
10403;SDS011;5248;47.374;8.486;2023-09-07T10:48:16;7.18;;;6.50;;
10403;SDS011;5248;47.374;8.486;2023-09-07T10:50:43;6.93;;;6.28;;
10403;SDS011;5248;47.374;8.486;2023-09-07T10:53:13;8.13;;;6.15;;
10403;SDS011;5248;47.374;8.486;2023-09-07T10:55:40;7.30;;;5.97;;
10403;SDS011;5248;47.374;8.486;2023-09-07T10:58:08;7.00;;;6.40;;
10403;SDS011;5248;47.374;8.486;2023-09-07T11:00:35;6.85;;;6.15;;
10403;SDS011;5248;47.374;8.486;2023-09-07T11:03:06;7.18;;;6.57;;
10403;SDS011;5248;47.374;8.486;2023-09-07T11:05:35;7.25;;;6.03;;
10403;SDS011;5248;47.374;8.486;2023-09-07T11:08:03;7.03;;;6.43;;
10403;SDS011;5248;47.374;8.486;2023-09-07T11:10:31;6.75;;;6.15;;
10403;SDS011;5248;47.374;8.486;2023-09-07T11:13:01;6.88;;;6.25;;
10403;SDS011;5248;47.374;8.486;2023-09-07T11:15:29;6.80;;;5.97;;
10403;SDS011;5248;47.374;8.486;2023-09-07T11:17:55;6.93;;;6.18;;
10403;SDS011;5248;47.374;8.486;2023-09-07T11:20:23;6.35;;;5.70;;
10403;SDS011;5248;47.374;8.486;2023-09-07T11:22:50;6.82;;;6.13;;
10403;SDS011;5248;47.374;8.486;2023-09-07T11:25:17;6.88;;;6.13;;
10403;SDS011;5248;47.374;8.486;2023-09-07T11:27:43;8.52;;;6.13;;
10403;SDS011;5248;47.374;8.486;2023-09-07T11:30:10;6.45;;;5.88;;
10403;SDS011;5248;47.374;8.486;2023-09-07T11:32:37;8.88;;;5.70;;
10403;SDS011;5248;47.374;8.486;2023-09-07T11:35:05;6.45;;;5.93;;
10403;SDS011;5248;47.374;8.486;2023-09-07T11:37:32;7.25;;;6.13;;
10403;SDS011;5248;47.374;8.486;2023-09-07T11:40:00;6.10;;;5.55;;
10403;SDS011;5248;47.374;8.486;2023-09-07T11:42:29;6.07;;;5.47;;
10403;SDS011;5248;47.374;8.486;2023-09-07T11:44:56;7.13;;;5.75;;
10403;SDS011;5248;47.374;8.486;2023-09-07T11:47:22;6.50;;;5.90;;
10403;SDS011;5248;47.374;8.486;2023-09-07T11:49:49;5.80;;;5.30;;
10403;SDS011;5248;47.374;8.486;2023-09-07T11:52:18;7.38;;;5.30;;
10403;SDS011;5248;47.374;8.486;2023-09-07T11:54:44;6.75;;;6.05;;
10403;SDS011;5248;47.374;8.486;2023-09-07T11:57:12;16.60;;;6.95;;
10403;SDS011;5248;47.374;8.486;2023-09-07T11:59:41;6.30;;;5.65;;
10403;SDS011;5248;47.374;8.486;2023-09-07T12:02:07;7.63;;;5.60;;
10403;SDS011;5248;47.374;8.486;2023-09-07T12:04:36;5.97;;;5.35;;
10403;SDS011;5248;47.374;8.486;2023-09-07T12:07:03;8.45;;;5.32;;
10403;SDS011;5248;47.374;8.486;2023-09-07T12:09:29;5.32;;;4.82;;
10403;SDS011;5248;47.374;8.486;2023-09-07T12:11:56;5.50;;;5.00;;
10403;SDS011;5248;47.374;8.486;2023-09-07T12:14:24;7.72;;;5.20;;
10403;SDS011;5248;47.374;8.486;2023-09-07T12:16:50;10.15;;;5.28;;
10403;SDS011;5248;47.374;8.486;2023-09-07T12:19:17;6.13;;;5.10;;
10403;SDS011;5248;47.374;8.486;2023-09-07T12:21:43;6.82;;;5.07;;
10403;SDS011;5248;47.374;8.486;2023-09-07T12:24:10;10.95;;;4.90;;
10403;SDS011;5248;47.374;8.486;2023-09-07T12:26:37;6.30;;;4.65;;
10403;SDS011;5248;47.374;8.486;2023-09-07T12:29:03;5.95;;;5.40;;
10403;SDS011;5248;47.374;8.486;2023-09-07T12:31:34;8.65;;;5.15;;
10403;SDS011;5248;47.374;8.486;2023-09-07T12:34:01;10.20;;;6.47;;
10403;SDS011;5248;47.374;8.486;2023-09-07T12:36:27;9.15;;;6.05;;
10403;SDS011;5248;47.374;8.486;2023-09-07T12:38:55;5.90;;;5.28;;
10403;SDS011;5248;47.374;8.486;2023-09-07T12:41:22;6.10;;;5.50;;
10403;SDS011;5248;47.374;8.486;2023-09-07T12:43:49;5.45;;;5.00;;
10403;SDS011;5248;47.374;8.486;2023-09-07T12:46:15;5.53;;;4.82;;
10403;SDS011;5248;47.374;8.486;2023-09-07T12:48:43;14.00;;;5.22;;
10403;SDS011;5248;47.374;8.486;2023-09-07T12:51:09;7.80;;;4.90;;
10403;SDS011;5248;47.374;8.486;2023-09-07T12:53:38;7.40;;;4.50;;
10403;SDS011;5248;47.374;8.486;2023-09-07T12:56:06;4.72;;;4.43;;
10403;SDS011;5248;47.374;8.486;2023-09-07T12:58:32;5.30;;;4.80;;
10403;SDS011;5248;47.374;8.486;2023-09-07T13:00:59;5.05;;;4.55;;
10403;SDS011;5248;47.374;8.486;2023-09-07T13:03:25;5.53;;;5.03;;
10403;SDS011;5248;47.374;8.486;2023-09-07T13:05:53;6.97;;;5.10;;
10403;SDS011;5248;47.374;8.486;2023-09-07T13:08:19;5.57;;;5.00;;
10403;SDS011;5248;47.374;8.486;2023-09-07T13:10:46;4.78;;;4.35;;
10403;SDS011;5248;47.374;8.486;2023-09-07T13:13:12;4.88;;;4.35;;
10403;SDS011;5248;47.374;8.486;2023-09-07T13:15:39;5.18;;;4.68;;
10403;SDS011;5248;47.374;8.486;2023-09-07T13:18:06;5.45;;;4.93;;
10403;SDS011;5248;47.374;8.486;2023-09-07T13:20:32;4.88;;;4.47;;
10403;SDS011;5248;47.374;8.486;2023-09-07T13:23:00;5.25;;;4.85;;
10403;SDS011;5248;47.374;8.486;2023-09-07T13:25:26;5.78;;;4.95;;
10403;SDS011;5248;47.374;8.486;2023-09-07T13:27:55;6.10;;;4.95;;
10403;SDS011;5248;47.374;8.486;2023-09-07T13:30:24;5.85;;;4.63;;
10403;SDS011;5248;47.374;8.486;2023-09-07T13:32:50;5.00;;;4.60;;
10403;SDS011;5248;47.374;8.486;2023-09-07T13:35:18;5.97;;;4.30;;
10403;SDS011;5248;47.374;8.486;2023-09-07T13:37:44;5.32;;;4.93;;
10403;SDS011;5248;47.374;8.486;2023-09-07T13:40:12;6.90;;;5.13;;
10403;SDS011;5248;47.374;8.486;2023-09-07T13:42:40;5.22;;;4.72;;
10403;SDS011;5248;47.374;8.486;2023-09-07T13:45:08;5.10;;;4.75;;
10403;SDS011;5248;47.374;8.486;2023-09-07T13:47:35;6.65;;;4.75;;
10403;SDS011;5248;47.374;8.486;2023-09-07T13:50:01;17.80;;;12.70;;
10403;SDS011;5248;47.374;8.486;2023-09-07T13:52:28;7.00;;;6.00;;
10403;SDS011;5248;47.374;8.486;2023-09-07T13:54:54;6.90;;;6.20;;
10403;SDS011;5248;47.374;8.486;2023-09-07T13:57:22;6.25;;;4.63;;
10403;SDS011;5248;47.374;8.486;2023-09-07T13:59:49;4.85;;;4.32;;
10403;SDS011;5248;47.374;8.486;2023-09-07T14:02:15;5.03;;;4.20;;
10403;SDS011;5248;47.374;8.486;2023-09-07T14:04:42;6.05;;;5.55;;
10403;SDS011;5248;47.374;8.486;2023-09-07T14:07:08;18.52;;;16.58;;
10403;SDS011;5248;47.374;8.486;2023-09-07T14:09:34;18.70;;;16.33;;
10403;SDS011;5248;47.374;8.486;2023-09-07T14:12:01;15.23;;;12.77;;
10403;SDS011;5248;47.374;8.486;2023-09-07T14:14:29;5.72;;;5.10;;
10403;SDS011;5248;47.374;8.486;2023-09-07T14:16:55;6.30;;;5.70;;
10403;SDS011;5248;47.374;8.486;2023-09-07T14:19:25;5.40;;;5.00;;
10403;SDS011;5248;47.374;8.486;2023-09-07T14:21:52;5.38;;;4.88;;
10403;SDS011;5248;47.374;8.486;2023-09-07T14:24:19;5.28;;;4.85;;
10403;SDS011;5248;47.374;8.486;2023-09-07T14:26:46;5.30;;;4.85;;
10403;SDS011;5248;47.374;8.486;2023-09-07T14:29:12;6.45;;;5.47;;
10403;SDS011;5248;47.374;8.486;2023-09-07T14:31:40;6.50;;;4.72;;
10403;SDS011;5248;47.374;8.486;2023-09-07T14:34:08;5.00;;;4.70;;
10403;SDS011;5248;47.374;8.486;2023-09-07T14:36:35;5.10;;;4.70;;
10403;SDS011;5248;47.374;8.486;2023-09-07T14:39:02;5.20;;;4.68;;
10403;SDS011;5248;47.374;8.486;2023-09-07T14:41:31;5.82;;;5.20;;
10403;SDS011;5248;47.374;8.486;2023-09-07T14:43:59;4.80;;;4.40;;
10403;SDS011;5248;47.374;8.486;2023-09-07T14:46:26;5.50;;;5.00;;
10403;SDS011;5248;47.374;8.486;2023-09-07T14:48:54;5.28;;;4.85;;
10403;SDS011;5248;47.374;8.486;2023-09-07T14:51:21;5.53;;;4.68;;
10403;SDS011;5248;47.374;8.486;2023-09-07T14:53:48;5.93;;;5.38;;
10403;SDS011;5248;47.374;8.486;2023-09-07T14:56:14;5.68;;;4.82;;
10403;SDS011;5248;47.374;8.486;2023-09-07T14:58:41;5.32;;;4.55;;
10403;SDS011;5248;47.374;8.486;2023-09-07T15:01:08;5.32;;;4.75;;